sensor_id;sensor_type;location;lat;lon;timestamp;temperature;humidity
17178;DHT22;8704;52.006;4.374;2023-04-25T00:00:25;6.90;1.00
17178;DHT22;8704;52.006;4.374;2023-04-25T00:02:53;6.90;1.00
17178;DHT22;8704;52.006;4.374;2023-04-25T00:05:23;6.90;1.00
17178;DHT22;8704;52.006;4.374;2023-04-25T00:07:52;6.80;1.00
17178;DHT22;8704;52.006;4.374;2023-04-25T00:10:21;6.80;1.00
17178;DHT22;8704;52.006;4.374;2023-04-25T00:12:49;6.80;1.00
17178;DHT22;8704;52.006;4.374;2023-04-25T00:15:18;6.80;1.00
17178;DHT22;8704;52.006;4.374;2023-04-25T00:17:47;6.70;1.00
17178;DHT22;8704;52.006;4.374;2023-04-25T00:20:15;6.70;1.00
17178;DHT22;8704;52.006;4.374;2023-04-25T00:22:43;6.70;1.00
17178;DHT22;8704;52.006;4.374;2023-04-25T00:25:11;6.60;1.00
17178;DHT22;8704;52.006;4.374;2023-04-25T00:27:40;6.90;1.00
17178;DHT22;8704;52.006;4.374;2023-04-25T00:30:09;6.90;1.00
17178;DHT22;8704;52.006;4.374;2023-04-25T00:32:37;6.60;1.00
17178;DHT22;8704;52.006;4.374;2023-04-25T00:35:06;6.70;1.00
17178;DHT22;8704;52.006;4.374;2023-04-25T00:37:34;6.60;1.00
17178;DHT22;8704;52.006;4.374;2023-04-25T00:40:04;6.60;1.00
17178;DHT22;8704;52.006;4.374;2023-04-25T00:42:33;6.70;1.00
17178;DHT22;8704;52.006;4.374;2023-04-25T00:45:05;6.60;1.00
17178;DHT22;8704;52.006;4.374;2023-04-25T00:47:33;6.70;1.00
17178;DHT22;8704;52.006;4.374;2023-04-25T00:50:03;6.60;1.00
17178;DHT22;8704;52.006;4.374;2023-04-25T00:52:31;6.70;1.00
17178;DHT22;8704;52.006;4.374;2023-04-25T00:54:59;7.00;1.00
17178;DHT22;8704;52.006;4.374;2023-04-25T00:57:28;6.70;1.00
17178;DHT22;8704;52.006;4.374;2023-04-25T00:59:56;6.70;1.00
17178;DHT22;8704;52.006;4.374;2023-04-25T01:02:26;6.80;1.00
17178;DHT22;8704;52.006;4.374;2023-04-25T01:04:55;6.70;1.00
17178;DHT22;8704;52.006;4.374;2023-04-25T01:07:23;6.70;1.00
17178;DHT22;8704;52.006;4.374;2023-04-25T01:09:52;6.70;1.00
17178;DHT22;8704;52.006;4.374;2023-04-25T01:12:20;6.70;1.00
17178;DHT22;8704;52.006;4.374;2023-04-25T01:14:48;7.00;1.00
17178;DHT22;8704;52.006;4.374;2023-04-25T01:17:18;6.70;1.00
17178;DHT22;8704;52.006;4.374;2023-04-25T01:19:47;6.70;1.00
17178;DHT22;8704;52.006;4.374;2023-04-25T01:22:17;6.70;1.00
17178;DHT22;8704;52.006;4.374;2023-04-25T01:24:45;6.70;1.00
17178;DHT22;8704;52.006;4.374;2023-04-25T01:27:13;6.70;1.00
17178;DHT22;8704;52.006;4.374;2023-04-25T01:29:42;6.60;1.00
17178;DHT22;8704;52.006;4.374;2023-04-25T01:32:10;6.60;1.00
17178;DHT22;8704;52.006;4.374;2023-04-25T01:34:38;6.60;1.00
17178;DHT22;8704;52.006;4.374;2023-04-25T01:37:06;6.50;99.90
17178;DHT22;8704;52.006;4.374;2023-04-25T01:39:36;6.60;1.00
17178;DHT22;8704;52.006;4.374;2023-04-25T01:42:04;6.90;99.90
17178;DHT22;8704;52.006;4.374;2023-04-25T01:44:32;6.50;99.90
17178;DHT22;8704;52.006;4.374;2023-04-25T01:47:00;6.60;99.90
17178;DHT22;8704;52.006;4.374;2023-04-25T01:49:28;6.60;99.90
17178;DHT22;8704;52.006;4.374;2023-04-25T01:51:56;6.90;99.90
17178;DHT22;8704;52.006;4.374;2023-04-25T01:54:24;6.50;99.90
17178;DHT22;8704;52.006;4.374;2023-04-25T01:56:57;6.70;99.90
17178;DHT22;8704;52.006;4.374;2023-04-25T01:59:25;6.50;1.00
17178;DHT22;8704;52.006;4.374;2023-04-25T02:01:53;6.50;1.00
17178;DHT22;8704;52.006;4.374;2023-04-25T02:04:21;6.50;1.00
17178;DHT22;8704;52.006;4.374;2023-04-25T02:06:49;6.50;1.00
17178;DHT22;8704;52.006;4.374;2023-04-25T02:09:17;6.60;99.90
17178;DHT22;8704;52.006;4.374;2023-04-25T02:11:45;6.60;99.90
17178;DHT22;8704;52.006;4.374;2023-04-25T02:14:14;6.50;1.00
17178;DHT22;8704;52.006;4.374;2023-04-25T02:16:42;6.60;1.00
17178;DHT22;8704;52.006;4.374;2023-04-25T02:19:11;6.60;1.00
17178;DHT22;8704;52.006;4.374;2023-04-25T02:21:39;6.60;1.00
17178;DHT22;8704;52.006;4.374;2023-04-25T02:24:08;6.90;1.00
17178;DHT22;8704;52.006;4.374;2023-04-25T02:26:36;6.60;1.00
17178;DHT22;8704;52.006;4.374;2023-04-25T02:29:04;6.70;1.00
17178;DHT22;8704;52.006;4.374;2023-04-25T02:31:33;7.10;1.00
17178;DHT22;8704;52.006;4.374;2023-04-25T02:34:02;6.60;1.00
17178;DHT22;8704;52.006;4.374;2023-04-25T02:36:30;6.50;1.00
17178;DHT22;8704;52.006;4.374;2023-04-25T02:39:01;6.60;1.00
17178;DHT22;8704;52.006;4.374;2023-04-25T02:41:29;7.10;1.00
17178;DHT22;8704;52.006;4.374;2023-04-25T02:43:57;6.60;1.00
17178;DHT22;8704;52.006;4.374;2023-04-25T02:46:25;6.90;1.00
17178;DHT22;8704;52.006;4.374;2023-04-25T02:49:06;6.70;1.00
17178;DHT22;8704;52.006;4.374;2023-04-25T02:51:34;6.60;1.00
17178;DHT22;8704;52.006;4.374;2023-04-25T02:54:02;6.70;1.00
17178;DHT22;8704;52.006;4.374;2023-04-25T02:56:30;6.60;1.00
17178;DHT22;8704;52.006;4.374;2023-04-25T02:58:58;6.60;1.00
17178;DHT22;8704;52.006;4.374;2023-04-25T03:01:26;6.60;1.00
17178;DHT22;8704;52.006;4.374;2023-04-25T03:03:54;6.70;1.00
17178;DHT22;8704;52.006;4.374;2023-04-25T03:06:24;6.60;1.00
17178;DHT22;8704;52.006;4.374;2023-04-25T03:08:52;6.70;1.00
17178;DHT22;8704;52.006;4.374;2023-04-25T03:11:20;6.70;1.00
17178;DHT22;8704;52.006;4.374;2023-04-25T03:13:48;6.70;1.00
17178;DHT22;8704;52.006;4.374;2023-04-25T03:16:16;6.70;1.00
17178;DHT22;8704;52.006;4.374;2023-04-25T03:18:44;6.70;1.00
17178;DHT22;8704;52.006;4.374;2023-04-25T03:21:12;6.70;1.00
17178;DHT22;8704;52.006;4.374;2023-04-25T03:23:41;6.70;1.00
17178;DHT22;8704;52.006;4.374;2023-04-25T03:26:09;6.70;1.00
17178;DHT22;8704;52.006;4.374;2023-04-25T03:28:37;6.70;1.00
17178;DHT22;8704;52.006;4.374;2023-04-25T03:31:06;6.70;1.00
17178;DHT22;8704;52.006;4.374;2023-04-25T03:33:34;6.70;1.00
17178;DHT22;8704;52.006;4.374;2023-04-25T03:36:03;6.70;1.00
17178;DHT22;8704;52.006;4.374;2023-04-25T03:38:31;6.70;1.00
17178;DHT22;8704;52.006;4.374;2023-04-25T03:41:01;6.70;1.00
17178;DHT22;8704;52.006;4.374;2023-04-25T03:43:29;6.70;1.00
17178;DHT22;8704;52.006;4.374;2023-04-25T03:45:57;6.80;1.00
17178;DHT22;8704;52.006;4.374;2023-04-25T03:48:25;6.70;1.00
17178;DHT22;8704;52.006;4.374;2023-04-25T03:50:54;6.80;1.00
17178;DHT22;8704;52.006;4.374;2023-04-25T03:53:22;6.70;1.00
17178;DHT22;8704;52.006;4.374;2023-04-25T03:55:50;6.80;1.00
17178;DHT22;8704;52.006;4.374;2023-04-25T03:58:19;6.80;1.00
17178;DHT22;8704;52.006;4.374;2023-04-25T04:00:47;6.80;1.00
17178;DHT22;8704;52.006;4.374;2023-04-25T04:03:15;6.80;1.00
17178;DHT22;8704;52.006;4.374;2023-04-25T04:05:44;7.00;1.00
17178;DHT22;8704;52.006;4.374;2023-04-25T04:08:13;6.80;1.00
17178;DHT22;8704;52.006;4.374;2023-04-25T04:10:41;6.80;1.00
17178;DHT22;8704;52.006;4.374;2023-04-25T04:13:09;6.70;1.00
17178;DHT22;8704;52.006;4.374;2023-04-25T04:15:38;6.70;1.00
17178;DHT22;8704;52.006;4.374;2023-04-25T04:18:06;6.70;1.00
17178;DHT22;8704;52.006;4.374;2023-04-25T04:20:34;6.70;1.00
17178;DHT22;8704;52.006;4.374;2023-04-25T04:23:02;6.80;1.00
17178;DHT22;8704;52.006;4.374;2023-04-25T04:25:31;6.70;1.00
17178;DHT22;8704;52.006;4.374;2023-04-25T04:28:01;6.70;1.00
17178;DHT22;8704;52.006;4.374;2023-04-25T04:30:29;6.90;1.00
17178;DHT22;8704;52.006;4.374;2023-04-25T04:32:59;6.70;1.00
17178;DHT22;8704;52.006;4.374;2023-04-25T04:35:27;6.70;1.00
17178;DHT22;8704;52.006;4.374;2023-04-25T04:37:55;6.60;99.90
17178;DHT22;8704;52.006;4.374;2023-04-25T04:40:23;6.60;1.00
17178;DHT22;8704;52.006;4.374;2023-04-25T04:42:52;6.60;1.00
17178;DHT22;8704;52.006;4.374;2023-04-25T04:45:23;6.50;1.00
17178;DHT22;8704;52.006;4.374;2023-04-25T04:47:51;6.50;1.00
17178;DHT22;8704;52.006;4.374;2023-04-25T04:50:20;6.70;1.00
17178;DHT22;8704;52.006;4.374;2023-04-25T04:52:49;6.50;1.00
17178;DHT22;8704;52.006;4.374;2023-04-25T04:55:17;6.50;1.00
17178;DHT22;8704;52.006;4.374;2023-04-25T04:57:45;6.50;1.00
17178;DHT22;8704;52.006;4.374;2023-04-25T05:00:14;6.50;1.00
17178;DHT22;8704;52.006;4.374;2023-04-25T05:02:42;6.50;1.00
17178;DHT22;8704;52.006;4.374;2023-04-25T05:05:10;6.50;1.00
17178;DHT22;8704;52.006;4.374;2023-04-25T05:07:40;6.50;1.00
17178;DHT22;8704;52.006;4.374;2023-04-25T05:10:08;6.50;1.00
17178;DHT22;8704;52.006;4.374;2023-04-25T05:12:37;6.50;1.00
17178;DHT22;8704;52.006;4.374;2023-04-25T05:15:06;6.50;1.00
17178;DHT22;8704;52.006;4.374;2023-04-25T05:17:34;6.50;1.00
17178;DHT22;8704;52.006;4.374;2023-04-25T05:20:02;6.50;1.00
17178;DHT22;8704;52.006;4.374;2023-04-25T05:22:32;6.50;1.00
17178;DHT22;8704;52.006;4.374;2023-04-25T05:25:01;6.50;1.00
17178;DHT22;8704;52.006;4.374;2023-04-25T05:27:30;6.70;1.00
17178;DHT22;8704;52.006;4.374;2023-04-25T05:29:58;6.40;1.00
17178;DHT22;8704;52.006;4.374;2023-04-25T05:32:26;6.50;1.00
17178;DHT22;8704;52.006;4.374;2023-04-25T05:34:54;6.50;1.00
17178;DHT22;8704;52.006;4.374;2023-04-25T05:37:22;6.50;1.00
17178;DHT22;8704;52.006;4.374;2023-04-25T05:39:50;6.40;1.00
17178;DHT22;8704;52.006;4.374;2023-04-25T05:42:20;6.50;1.00
17178;DHT22;8704;52.006;4.374;2023-04-25T05:44:48;6.50;1.00
17178;DHT22;8704;52.006;4.374;2023-04-25T05:47:15;6.60;1.00
17178;DHT22;8704;52.006;4.374;2023-04-25T05:49:43;6.60;1.00
17178;DHT22;8704;52.006;4.374;2023-04-25T05:52:11;6.60;1.00
17178;DHT22;8704;52.006;4.374;2023-04-25T05:54:39;6.60;1.00
17178;DHT22;8704;52.006;4.374;2023-04-25T05:57:07;6.60;1.00
17178;DHT22;8704;52.006;4.374;2023-04-25T05:59:37;6.70;1.00
17178;DHT22;8704;52.006;4.374;2023-04-25T06:02:05;6.60;1.00
17178;DHT22;8704;52.006;4.374;2023-04-25T06:04:33;6.60;1.00
17178;DHT22;8704;52.006;4.374;2023-04-25T06:07:02;6.70;1.00
17178;DHT22;8704;52.006;4.374;2023-04-25T06:09:30;7.00;1.00
17178;DHT22;8704;52.006;4.374;2023-04-25T06:11:58;6.70;1.00
17178;DHT22;8704;52.006;4.374;2023-04-25T06:14:26;6.70;1.00
17178;DHT22;8704;52.006;4.374;2023-04-25T06:16:56;6.80;1.00
17178;DHT22;8704;52.006;4.374;2023-04-25T06:19:24;6.70;1.00
17178;DHT22;8704;52.006;4.374;2023-04-25T06:21:52;6.80;1.00
17178;DHT22;8704;52.006;4.374;2023-04-25T06:24:20;6.80;1.00
17178;DHT22;8704;52.006;4.374;2023-04-25T06:26:48;6.80;1.00
17178;DHT22;8704;52.006;4.374;2023-04-25T06:29:16;7.00;1.00
17178;DHT22;8704;52.006;4.374;2023-04-25T06:31:44;6.80;1.00
17178;DHT22;8704;52.006;4.374;2023-04-25T06:34:14;6.90;1.00
17178;DHT22;8704;52.006;4.374;2023-04-25T06:36:42;6.90;1.00
17178;DHT22;8704;52.006;4.374;2023-04-25T06:39:11;7.00;1.00
17178;DHT22;8704;52.006;4.374;2023-04-25T06:41:39;6.90;1.00
17178;DHT22;8704;52.006;4.374;2023-04-25T06:44:07;6.90;1.00
17178;DHT22;8704;52.006;4.374;2023-04-25T06:46:35;6.90;1.00
17178;DHT22;8704;52.006;4.374;2023-04-25T06:49:04;6.90;1.00
17178;DHT22;8704;52.006;4.374;2023-04-25T06:51:33;7.10;1.00
17178;DHT22;8704;52.006;4.374;2023-04-25T06:54:01;6.90;1.00
17178;DHT22;8704;52.006;4.374;2023-04-25T06:56:30;6.90;1.00
17178;DHT22;8704;52.006;4.374;2023-04-25T06:58:59;6.90;1.00
17178;DHT22;8704;52.006;4.374;2023-04-25T07:01:27;7.00;1.00
17178;DHT22;8704;52.006;4.374;2023-04-25T07:03:55;7.00;1.00
17178;DHT22;8704;52.006;4.374;2023-04-25T07:06:24;7.10;1.00
17178;DHT22;8704;52.006;4.374;2023-04-25T07:08:55;7.10;1.00
17178;DHT22;8704;52.006;4.374;2023-04-25T07:11:22;7.30;1.00
17178;DHT22;8704;52.006;4.374;2023-04-25T07:13:51;7.40;1.00
17178;DHT22;8704;52.006;4.374;2023-04-25T07:16:19;7.60;1.00
17178;DHT22;8704;52.006;4.374;2023-04-25T07:18:47;7.70;1.00
17178;DHT22;8704;52.006;4.374;2023-04-25T07:21:15;7.70;1.00
17178;DHT22;8704;52.006;4.374;2023-04-25T07:23:43;7.80;99.90
17178;DHT22;8704;52.006;4.374;2023-04-25T07:26:12;7.80;1.00
17178;DHT22;8704;52.006;4.374;2023-04-25T07:28:41;7.90;99.90
17178;DHT22;8704;52.006;4.374;2023-04-25T07:31:09;7.90;99.90
17178;DHT22;8704;52.006;4.374;2023-04-25T07:33:37;7.80;1.00
17178;DHT22;8704;52.006;4.374;2023-04-25T07:36:06;8.00;99.90
17178;DHT22;8704;52.006;4.374;2023-04-25T07:38:34;8.00;99.90
17178;DHT22;8704;52.006;4.374;2023-04-25T07:41:02;8.10;99.90
17178;DHT22;8704;52.006;4.374;2023-04-25T07:43:31;8.10;99.90
17178;DHT22;8704;52.006;4.374;2023-04-25T07:45:59;8.20;99.90
17178;DHT22;8704;52.006;4.374;2023-04-25T07:48:27;8.30;99.90
17178;DHT22;8704;52.006;4.374;2023-04-25T07:50:55;8.30;99.90
17178;DHT22;8704;52.006;4.374;2023-04-25T07:53:23;8.30;99.90
17178;DHT22;8704;52.006;4.374;2023-04-25T07:55:51;8.30;99.90
17178;DHT22;8704;52.006;4.374;2023-04-25T07:58:19;8.30;99.90
17178;DHT22;8704;52.006;4.374;2023-04-25T08:00:50;8.30;99.90
17178;DHT22;8704;52.006;4.374;2023-04-25T08:03:18;8.20;99.90
17178;DHT22;8704;52.006;4.374;2023-04-25T08:05:46;8.30;99.90
17178;DHT22;8704;52.006;4.374;2023-04-25T08:08:15;8.50;99.90
17178;DHT22;8704;52.006;4.374;2023-04-25T08:10:43;8.30;99.90
17178;DHT22;8704;52.006;4.374;2023-04-25T08:13:11;8.50;99.90
17178;DHT22;8704;52.006;4.374;2023-04-25T08:15:39;8.40;99.90
17178;DHT22;8704;52.006;4.374;2023-04-25T08:18:08;8.50;99.90
17178;DHT22;8704;52.006;4.374;2023-04-25T08:20:36;8.70;99.90
17178;DHT22;8704;52.006;4.374;2023-04-25T08:23:04;8.70;99.90
17178;DHT22;8704;52.006;4.374;2023-04-25T08:25:32;8.70;99.90
17178;DHT22;8704;52.006;4.374;2023-04-25T08:28:00;8.70;99.90
17178;DHT22;8704;52.006;4.374;2023-04-25T08:30:29;9.20;99.90
17178;DHT22;8704;52.006;4.374;2023-04-25T08:32:57;8.80;99.90
17178;DHT22;8704;52.006;4.374;2023-04-25T08:35:27;8.90;99.90
17178;DHT22;8704;52.006;4.374;2023-04-25T08:37:55;9.00;99.90
17178;DHT22;8704;52.006;4.374;2023-04-25T08:40:27;8.80;99.90
17178;DHT22;8704;52.006;4.374;2023-04-25T08:42:57;8.80;99.90
17178;DHT22;8704;52.006;4.374;2023-04-25T08:45:28;8.80;99.90
17178;DHT22;8704;52.006;4.374;2023-04-25T08:47:59;9.00;99.90
17178;DHT22;8704;52.006;4.374;2023-04-25T08:50:30;9.10;99.90
17178;DHT22;8704;52.006;4.374;2023-04-25T08:52:59;9.00;99.90
17178;DHT22;8704;52.006;4.374;2023-04-25T08:55:30;9.20;99.90
17178;DHT22;8704;52.006;4.374;2023-04-25T08:57:59;8.90;99.90
17178;DHT22;8704;52.006;4.374;2023-04-25T09:00:28;9.00;99.90
17178;DHT22;8704;52.006;4.374;2023-04-25T09:02:57;9.10;99.90
17178;DHT22;8704;52.006;4.374;2023-04-25T09:05:26;9.20;99.90
17178;DHT22;8704;52.006;4.374;2023-04-25T09:07:57;9.30;99.90
17178;DHT22;8704;52.006;4.374;2023-04-25T09:10:25;9.40;99.90
17178;DHT22;8704;52.006;4.374;2023-04-25T09:13:03;9.40;99.90
17178;DHT22;8704;52.006;4.374;2023-04-25T09:15:32;9.30;99.90
17178;DHT22;8704;52.006;4.374;2023-04-25T09:18:01;9.40;99.90
17178;DHT22;8704;52.006;4.374;2023-04-25T09:20:29;9.70;99.90
17178;DHT22;8704;52.006;4.374;2023-04-25T09:23:04;9.50;99.90
17178;DHT22;8704;52.006;4.374;2023-04-25T09:25:34;9.50;99.90
17178;DHT22;8704;52.006;4.374;2023-04-25T09:28:06;9.70;99.90
17178;DHT22;8704;52.006;4.374;2023-04-25T09:30:35;9.70;99.90
17178;DHT22;8704;52.006;4.374;2023-04-25T09:33:04;9.70;99.90
17178;DHT22;8704;52.006;4.374;2023-04-25T09:35:38;9.80;99.90
17178;DHT22;8704;52.006;4.374;2023-04-25T09:38:12;9.90;99.90
17178;DHT22;8704;52.006;4.374;2023-04-25T09:40:41;10.10;99.90
17178;DHT22;8704;52.006;4.374;2023-04-25T09:43:19;10.00;99.90
17178;DHT22;8704;52.006;4.374;2023-04-25T09:45:48;10.00;99.90
17178;DHT22;8704;52.006;4.374;2023-04-25T09:48:19;10.00;99.90
17178;DHT22;8704;52.006;4.374;2023-04-25T09:51:04;10.00;99.90
17178;DHT22;8704;52.006;4.374;2023-04-25T09:53:34;9.90;99.90
17178;DHT22;8704;52.006;4.374;2023-04-25T09:56:04;9.80;99.90
17178;DHT22;8704;52.006;4.374;2023-04-25T09:58:34;9.60;99.90
17178;DHT22;8704;52.006;4.374;2023-04-25T10:01:03;10.00;99.90
17178;DHT22;8704;52.006;4.374;2023-04-25T10:03:33;10.30;99.90
17178;DHT22;8704;52.006;4.374;2023-04-25T10:06:04;10.20;99.90
17178;DHT22;8704;52.006;4.374;2023-04-25T10:08:37;10.00;99.90
17178;DHT22;8704;52.006;4.374;2023-04-25T10:11:06;10.20;99.90
17178;DHT22;8704;52.006;4.374;2023-04-25T10:13:35;10.60;99.90
17178;DHT22;8704;52.006;4.374;2023-04-25T10:16:04;10.10;99.90
17178;DHT22;8704;52.006;4.374;2023-04-25T10:18:32;10.40;99.90
17178;DHT22;8704;52.006;4.374;2023-04-25T10:21:02;10.50;99.90
17178;DHT22;8704;52.006;4.374;2023-04-25T10:23:32;10.60;99.90
17178;DHT22;8704;52.006;4.374;2023-04-25T10:26:03;10.80;99.90
17178;DHT22;8704;52.006;4.374;2023-04-25T10:28:55;10.30;99.90
17178;DHT22;8704;52.006;4.374;2023-04-25T10:31:23;10.50;99.90
17178;DHT22;8704;52.006;4.374;2023-04-25T10:33:51;10.70;99.90
17178;DHT22;8704;52.006;4.374;2023-04-25T10:36:21;10.60;99.90
17178;DHT22;8704;52.006;4.374;2023-04-25T10:38:50;11.30;99.90
17178;DHT22;8704;52.006;4.374;2023-04-25T10:41:20;10.90;99.90
17178;DHT22;8704;52.006;4.374;2023-04-25T10:43:50;10.50;99.90
17178;DHT22;8704;52.006;4.374;2023-04-25T10:46:28;10.50;99.90
17178;DHT22;8704;52.006;4.374;2023-04-25T10:48:58;10.60;99.90
17178;DHT22;8704;52.006;4.374;2023-04-25T10:51:28;10.90;99.90
17178;DHT22;8704;52.006;4.374;2023-04-25T10:54:17;10.80;99.90
17178;DHT22;8704;52.006;4.374;2023-04-25T10:56:48;11.00;99.90
17178;DHT22;8704;52.006;4.374;2023-04-25T10:59:19;10.60;99.90
17178;DHT22;8704;52.006;4.374;2023-04-25T11:01:53;10.70;99.90
17178;DHT22;8704;52.006;4.374;2023-04-25T11:04:23;11.10;99.90
17178;DHT22;8704;52.006;4.374;2023-04-25T11:07:00;11.20;99.90
17178;DHT22;8704;52.006;4.374;2023-04-25T11:09:34;11.10;99.90
17178;DHT22;8704;52.006;4.374;2023-04-25T11:12:04;11.00;99.90
17178;DHT22;8704;52.006;4.374;2023-04-25T11:14:32;11.10;99.90
17178;DHT22;8704;52.006;4.374;2023-04-25T11:17:00;11.20;99.90
17178;DHT22;8704;52.006;4.374;2023-04-25T11:19:29;11.50;99.90
17178;DHT22;8704;52.006;4.374;2023-04-25T11:21:58;11.60;99.90
17178;DHT22;8704;52.006;4.374;2023-04-25T11:24:27;11.90;99.90
17178;DHT22;8704;52.006;4.374;2023-04-25T11:26:56;11.70;99.90
17178;DHT22;8704;52.006;4.374;2023-04-25T11:29:26;11.90;99.90
17178;DHT22;8704;52.006;4.374;2023-04-25T11:31:55;12.10;99.90
17178;DHT22;8704;52.006;4.374;2023-04-25T11:34:25;12.00;99.90
17178;DHT22;8704;52.006;4.374;2023-04-25T11:36:53;12.00;99.90
17178;DHT22;8704;52.006;4.374;2023-04-25T11:39:22;11.80;99.90
17178;DHT22;8704;52.006;4.374;2023-04-25T11:41:51;11.60;99.90
17178;DHT22;8704;52.006;4.374;2023-04-25T11:44:20;11.60;99.90
17178;DHT22;8704;52.006;4.374;2023-04-25T11:46:49;11.90;99.90
17178;DHT22;8704;52.006;4.374;2023-04-25T11:49:17;12.20;99.90
17178;DHT22;8704;52.006;4.374;2023-04-25T11:51:47;12.10;99.90
17178;DHT22;8704;52.006;4.374;2023-04-25T11:54:16;12.60;99.90
17178;DHT22;8704;52.006;4.374;2023-04-25T11:56:47;12.60;99.90
17178;DHT22;8704;52.006;4.374;2023-04-25T11:59:15;12.00;99.90
17178;DHT22;8704;52.006;4.374;2023-04-25T12:01:49;12.80;99.90
17178;DHT22;8704;52.006;4.374;2023-04-25T12:04:19;12.70;99.90
17178;DHT22;8704;52.006;4.374;2023-04-25T12:06:49;12.80;99.90
17178;DHT22;8704;52.006;4.374;2023-04-25T12:09:19;12.40;99.90
17178;DHT22;8704;52.006;4.374;2023-04-25T12:11:52;12.20;99.90
17178;DHT22;8704;52.006;4.374;2023-04-25T12:14:22;12.10;99.90
17178;DHT22;8704;52.006;4.374;2023-04-25T12:16:52;12.40;99.90
17178;DHT22;8704;52.006;4.374;2023-04-25T12:19:21;12.20;99.90
17178;DHT22;8704;52.006;4.374;2023-04-25T12:21:50;12.10;99.90
17178;DHT22;8704;52.006;4.374;2023-04-25T12:24:24;12.60;99.90
17178;DHT22;8704;52.006;4.374;2023-04-25T12:26:53;13.00;99.90
17178;DHT22;8704;52.006;4.374;2023-04-25T12:29:23;12.80;99.90
17178;DHT22;8704;52.006;4.374;2023-04-25T12:31:58;12.60;99.90
17178;DHT22;8704;52.006;4.374;2023-04-25T12:34:28;12.70;99.90
17178;DHT22;8704;52.006;4.374;2023-04-25T12:36:58;12.60;99.90
17178;DHT22;8704;52.006;4.374;2023-04-25T12:39:26;12.50;99.90
17178;DHT22;8704;52.006;4.374;2023-04-25T12:41:54;12.80;99.90
17178;DHT22;8704;52.006;4.374;2023-04-25T12:44:22;12.50;99.90
17178;DHT22;8704;52.006;4.374;2023-04-25T12:46:50;12.20;99.90
17178;DHT22;8704;52.006;4.374;2023-04-25T12:49:19;12.40;99.90
17178;DHT22;8704;52.006;4.374;2023-04-25T12:51:50;12.40;99.90
17178;DHT22;8704;52.006;4.374;2023-04-25T12:54:18;12.70;99.90
17178;DHT22;8704;52.006;4.374;2023-04-25T12:56:46;13.00;99.90
17178;DHT22;8704;52.006;4.374;2023-04-25T12:59:14;13.00;99.90
17178;DHT22;8704;52.006;4.374;2023-04-25T13:01:42;13.40;99.90
17178;DHT22;8704;52.006;4.374;2023-04-25T13:04:11;14.00;99.90
17178;DHT22;8704;52.006;4.374;2023-04-25T13:06:40;13.70;99.90
17178;DHT22;8704;52.006;4.374;2023-04-25T13:09:08;13.50;99.90
17178;DHT22;8704;52.006;4.374;2023-04-25T13:11:39;13.90;99.90
17178;DHT22;8704;52.006;4.374;2023-04-25T13:14:08;14.30;99.90
17178;DHT22;8704;52.006;4.374;2023-04-25T13:16:36;13.70;99.90
17178;DHT22;8704;52.006;4.374;2023-04-25T13:19:04;13.70;99.90
17178;DHT22;8704;52.006;4.374;2023-04-25T13:21:34;13.70;99.90
17178;DHT22;8704;52.006;4.374;2023-04-25T13:24:04;13.60;99.90
17178;DHT22;8704;52.006;4.374;2023-04-25T13:26:32;13.40;99.90
17178;DHT22;8704;52.006;4.374;2023-04-25T13:29:00;13.30;99.90
17178;DHT22;8704;52.006;4.374;2023-04-25T13:31:31;13.20;99.90
17178;DHT22;8704;52.006;4.374;2023-04-25T13:33:59;13.20;99.90
17178;DHT22;8704;52.006;4.374;2023-04-25T13:36:27;12.90;99.90
17178;DHT22;8704;52.006;4.374;2023-04-25T13:38:55;12.90;99.90
17178;DHT22;8704;52.006;4.374;2023-04-25T13:41:24;13.10;99.90
17178;DHT22;8704;52.006;4.374;2023-04-25T13:43:53;13.50;99.90
17178;DHT22;8704;52.006;4.374;2023-04-25T13:46:21;13.60;99.90
17178;DHT22;8704;52.006;4.374;2023-04-25T13:49:09;13.80;99.90
17178;DHT22;8704;52.006;4.374;2023-04-25T13:51:39;14.30;99.90
17178;DHT22;8704;52.006;4.374;2023-04-25T13:54:07;14.80;99.90
17178;DHT22;8704;52.006;4.374;2023-04-25T13:56:37;15.20;99.90
17178;DHT22;8704;52.006;4.374;2023-04-25T13:59:05;15.30;99.90
17178;DHT22;8704;52.006;4.374;2023-04-25T14:01:33;15.80;99.90
17178;DHT22;8704;52.006;4.374;2023-04-25T14:04:02;16.10;99.90
17178;DHT22;8704;52.006;4.374;2023-04-25T14:06:31;16.10;99.90
17178;DHT22;8704;52.006;4.374;2023-04-25T14:08:59;16.10;99.90
17178;DHT22;8704;52.006;4.374;2023-04-25T14:11:28;16.20;99.90
17178;DHT22;8704;52.006;4.374;2023-04-25T14:13:57;16.10;99.90
17178;DHT22;8704;52.006;4.374;2023-04-25T14:16:25;16.50;99.90
17178;DHT22;8704;52.006;4.374;2023-04-25T14:18:53;16.20;99.90
17178;DHT22;8704;52.006;4.374;2023-04-25T14:21:22;16.70;99.90
17178;DHT22;8704;52.006;4.374;2023-04-25T14:23:50;16.80;99.90
17178;DHT22;8704;52.006;4.374;2023-04-25T14:26:18;16.90;99.90
17178;DHT22;8704;52.006;4.374;2023-04-25T14:28:46;17.20;99.90
17178;DHT22;8704;52.006;4.374;2023-04-25T14:31:16;16.30;99.90
17178;DHT22;8704;52.006;4.374;2023-04-25T14:33:44;16.50;99.90
17178;DHT22;8704;52.006;4.374;2023-04-25T14:36:12;17.20;99.90
17178;DHT22;8704;52.006;4.374;2023-04-25T14:38:40;17.50;99.90
17178;DHT22;8704;52.006;4.374;2023-04-25T14:41:09;18.00;99.90
17178;DHT22;8704;52.006;4.374;2023-04-25T14:43:37;17.80;99.90
17178;DHT22;8704;52.006;4.374;2023-04-25T14:46:06;17.60;99.90
17178;DHT22;8704;52.006;4.374;2023-04-25T14:48:36;17.90;99.90
17178;DHT22;8704;52.006;4.374;2023-04-25T14:51:04;18.50;99.90
17178;DHT22;8704;52.006;4.374;2023-04-25T14:53:32;18.40;99.90
17178;DHT22;8704;52.006;4.374;2023-04-25T14:56:00;17.40;99.90
17178;DHT22;8704;52.006;4.374;2023-04-25T14:58:28;17.00;99.90
17178;DHT22;8704;52.006;4.374;2023-04-25T15:00:57;17.00;99.90
17178;DHT22;8704;52.006;4.374;2023-04-25T15:03:25;17.50;99.90
17178;DHT22;8704;52.006;4.374;2023-04-25T15:05:55;18.00;99.90
17178;DHT22;8704;52.006;4.374;2023-04-25T15:08:23;18.00;99.90
17178;DHT22;8704;52.006;4.374;2023-04-25T15:10:52;18.40;99.90
17178;DHT22;8704;52.006;4.374;2023-04-25T15:13:20;18.70;99.90
17178;DHT22;8704;52.006;4.374;2023-04-25T15:15:48;18.80;99.90
17178;DHT22;8704;52.006;4.374;2023-04-25T15:18:19;18.80;99.90
17178;DHT22;8704;52.006;4.374;2023-04-25T15:20:48;18.50;99.90
17178;DHT22;8704;52.006;4.374;2023-04-25T15:23:19;18.40;99.90
17178;DHT22;8704;52.006;4.374;2023-04-25T15:25:49;18.10;99.90
17178;DHT22;8704;52.006;4.374;2023-04-25T15:28:17;17.90;99.90
17178;DHT22;8704;52.006;4.374;2023-04-25T15:30:48;17.50;99.90
17178;DHT22;8704;52.006;4.374;2023-04-25T15:33:16;18.00;99.90
17178;DHT22;8704;52.006;4.374;2023-04-25T15:35:44;18.30;99.90
17178;DHT22;8704;52.006;4.374;2023-04-25T15:38:12;18.20;99.90
17178;DHT22;8704;52.006;4.374;2023-04-25T15:40:42;17.50;99.90
17178;DHT22;8704;52.006;4.374;2023-04-25T15:43:10;18.30;99.90
17178;DHT22;8704;52.006;4.374;2023-04-25T15:45:42;18.10;99.90
17178;DHT22;8704;52.006;4.374;2023-04-25T15:48:11;18.10;99.90
17178;DHT22;8704;52.006;4.374;2023-04-25T15:50:40;17.90;99.90
17178;DHT22;8704;52.006;4.374;2023-04-25T15:53:08;18.60;99.90
17178;DHT22;8704;52.006;4.374;2023-04-25T15:55:36;18.60;99.90
17178;DHT22;8704;52.006;4.374;2023-04-25T15:58:06;18.20;99.90
17178;DHT22;8704;52.006;4.374;2023-04-25T16:00:37;18.90;99.90
17178;DHT22;8704;52.006;4.374;2023-04-25T16:03:06;18.60;99.90
17178;DHT22;8704;52.006;4.374;2023-04-25T16:05:35;17.50;99.90
17178;DHT22;8704;52.006;4.374;2023-04-25T16:08:03;17.40;99.90
17178;DHT22;8704;52.006;4.374;2023-04-25T16:10:32;17.80;99.90
17178;DHT22;8704;52.006;4.374;2023-04-25T16:13:00;18.30;99.90